Terminal Aerodrome Forecast
Issued by NWS Binghamton, NY

Home | Current Version | Previous Version | Text Only | Print | Product List | Glossary On
Versions: 1 2 3 4 5 6 7 8 9 10 11 12 13 14 15 16 17 18 19 20 21 22 23 24 25 26 27 28 29 30 31
000
FTUS41 KBGM 271135
TAFBGM
TAF
KBGM 271135Z 2712/2812 16007KT 3SM -SHRA BR OVC003 WS020/18035KT
     FM271500 18008KT P6SM OVC006
     FM271700 21007KT P6SM OVC012
     FM271900 VRB03KT P6SM OVC035
     FM280600 VRB04KT P6SM BKN025=

USA.gov is the U.S. government's official web portal to all federal, state and local government web resources and services.